createdAt,value
2023-05-14T00:01:14.215Z,10.56
2023-05-14T00:04:19.607Z,10.53
2023-05-14T00:07:22.301Z,10.50
2023-05-14T00:10:26.750Z,10.48
2023-05-14T00:13:29.453Z,10.46
2023-05-14T00:16:32.389Z,10.43
2023-05-14T00:19:35.128Z,10.33
2023-05-14T00:22:39.494Z,10.35
2023-05-14T00:25:42.150Z,10.35
2023-05-14T00:28:45.036Z,10.34
2023-05-14T00:31:47.697Z,10.35
2023-05-14T00:34:50.666Z,10.37
2023-05-14T00:37:53.807Z,10.37
2023-05-14T00:40:56.756Z,10.36
2023-05-14T00:43:59.706Z,10.39
2023-05-14T00:47:02.986Z,10.37
2023-05-14T00:50:06.743Z,10.41
2023-05-14T00:53:10.680Z,10.33
2023-05-14T00:56:14.439Z,10.37
2023-05-14T00:59:17.316Z,10.38
2023-05-14T01:02:20.017Z,10.38
2023-05-14T01:05:27.427Z,10.38
2023-05-14T01:08:50.778Z,10.35
2023-05-14T01:12:00.086Z,10.34
2023-05-14T01:15:02.666Z,10.34
2023-05-14T01:18:09.178Z,10.31
2023-05-14T01:21:42.863Z,10.27
2023-05-14T01:24:45.906Z,10.32
2023-05-14T01:28:09.444Z,10.31
2023-05-14T01:31:18.878Z,10.33
2023-05-14T01:34:24.199Z,10.35
2023-05-14T01:37:30.064Z,10.36
2023-05-14T01:40:34.105Z,10.37
2023-05-14T01:43:38.535Z,10.40
2023-05-14T01:46:41.369Z,10.33
2023-05-14T01:49:44.353Z,10.30
2023-05-14T01:52:48.355Z,10.37
2023-05-14T01:55:51.242Z,10.36
2023-05-14T01:58:55.641Z,10.37
2023-05-14T02:01:58.726Z,10.37
2023-05-14T02:05:01.896Z,10.37
2023-05-14T02:08:04.944Z,10.37
2023-05-14T02:11:08.385Z,10.39
2023-05-14T02:14:11.609Z,10.40
2023-05-14T02:17:16.645Z,10.41
2023-05-14T02:20:19.636Z,10.38
2023-05-14T02:23:34.052Z,10.46
2023-05-14T02:26:43.679Z,10.47
2023-05-14T02:29:46.365Z,10.47
2023-05-14T02:32:49.866Z,10.44
2023-05-14T02:35:52.640Z,10.42
2023-05-14T02:38:55.510Z,10.43
2023-05-14T02:41:58.155Z,10.43
2023-05-14T02:45:01.158Z,10.39
2023-05-14T02:48:03.999Z,10.43
2023-05-14T02:51:07.866Z,10.45
2023-05-14T02:54:10.723Z,10.43
2023-05-14T02:57:13.719Z,10.45
2023-05-14T03:00:16.633Z,10.45
2023-05-14T03:03:20.161Z,10.45
2023-05-14T03:06:23.635Z,10.37
2023-05-14T03:09:26.552Z,10.41
2023-05-14T03:12:29.262Z,10.35
2023-05-14T03:15:32.209Z,10.27
2023-05-14T03:18:36.678Z,10.28
2023-05-14T03:21:39.944Z,10.32
2023-05-14T03:24:42.587Z,10.33
2023-05-14T03:27:46.332Z,10.32
2023-05-14T03:30:49.151Z,10.31
2023-05-14T03:33:52.371Z,10.29
2023-05-14T03:36:55.036Z,10.26
2023-05-14T03:39:57.966Z,10.28
2023-05-14T03:43:00.815Z,10.28
2023-05-14T03:46:03.901Z,10.20
2023-05-14T03:49:07.468Z,10.28
2023-05-14T03:52:10.818Z,10.27
2023-05-14T03:55:13.497Z,10.25
2023-05-14T03:58:18.388Z,10.20
2023-05-14T04:01:21.044Z,10.26
2023-05-14T04:04:24.001Z,10.27
2023-05-14T04:07:26.704Z,10.19
2023-05-14T04:10:29.976Z,10.24
2023-05-14T04:13:32.631Z,10.23
2023-05-14T04:16:35.837Z,10.22
2023-05-14T04:19:39.357Z,10.26
2023-05-14T04:22:42.316Z,10.28
2023-05-14T04:25:44.931Z,10.30
2023-05-14T04:28:47.927Z,10.33
2023-05-14T04:31:50.716Z,10.33
2023-05-14T04:34:53.605Z,10.31
2023-05-14T04:37:56.773Z,10.32
2023-05-14T04:40:59.691Z,10.31
2023-05-14T04:44:03.704Z,10.33
2023-05-14T04:47:07.138Z,10.29
2023-05-14T04:50:10.034Z,10.28
2023-05-14T04:53:12.974Z,10.29
2023-05-14T04:56:15.609Z,10.20
2023-05-14T04:59:18.512Z,10.30
2023-05-14T05:02:21.186Z,10.34
2023-05-14T05:05:24.149Z,10.36
2023-05-14T05:08:26.820Z,10.32
2023-05-14T05:11:29.702Z,10.36
2023-05-14T05:14:32.516Z,10.39
2023-05-14T05:17:35.975Z,10.34
2023-05-14T05:20:38.683Z,10.32
2023-05-14T05:23:41.541Z,10.22
2023-05-14T05:26:44.183Z,10.28
2023-05-14T05:29:47.052Z,10.26
2023-05-14T05:32:49.794Z,10.19
2023-05-14T05:35:52.738Z,10.24
2023-05-14T05:38:56.106Z,10.20
2023-05-14T05:41:59.069Z,10.18
2023-05-14T05:45:01.724Z,10.23
2023-05-14T05:48:05.061Z,10.22
2023-05-14T05:51:07.727Z,10.31
2023-05-14T05:54:10.644Z,10.34
2023-05-14T05:57:13.513Z,10.33
2023-05-14T06:00:17.057Z,10.25
2023-05-14T06:03:19.740Z,10.32
2023-05-14T06:06:22.782Z,10.34
2023-05-14T06:09:25.466Z,10.38
2023-05-14T06:12:28.371Z,10.34
2023-05-14T06:15:30.995Z,10.32
2023-05-14T06:18:34.002Z,10.36
2023-05-14T06:21:36.778Z,10.33
2023-05-14T06:24:39.690Z,10.35
2023-05-14T06:27:42.868Z,10.34
2023-05-14T06:30:45.740Z,10.23
2023-05-14T06:33:48.454Z,10.27
2023-05-14T06:36:51.343Z,10.20
2023-05-14T06:39:55.226Z,10.15
2023-05-14T06:42:59.312Z,10.11
2023-05-14T06:46:01.930Z,10.15
2023-05-14T06:49:05.287Z,10.13
2023-05-14T06:52:08.212Z,10.11
2023-05-14T06:55:11.115Z,10.09
2023-05-14T06:58:13.776Z,10.06
2023-05-14T07:01:17.243Z,10.06
2023-05-14T07:04:22.618Z,10.02
2023-05-14T07:07:25.559Z,10.08
2023-05-14T07:10:28.372Z,10.10
2023-05-14T07:13:31.388Z,10.11
2023-05-14T07:16:34.120Z,10.00
2023-05-14T07:19:37.550Z,10.09
2023-05-14T07:22:43.685Z,10.06
2023-05-14T07:25:47.108Z,10.02
2023-05-14T07:28:49.910Z,10.01
2023-05-14T07:31:52.869Z,10.05
2023-05-14T07:34:56.012Z,10.08
2023-05-14T07:37:58.980Z,10.08
2023-05-14T07:41:01.702Z,10.08
2023-05-14T07:44:05.245Z,10.14
2023-05-14T07:47:08.808Z,10.19
2023-05-14T07:50:11.963Z,10.22
2023-05-14T07:53:14.603Z,10.24
2023-05-14T07:56:17.487Z,10.24
2023-05-14T07:59:20.221Z,10.28
2023-05-14T08:02:23.203Z,10.29
2023-05-14T08:05:26.737Z,10.24
2023-05-14T08:08:29.565Z,10.24
2023-05-14T08:11:32.479Z,10.35
2023-05-14T08:14:35.137Z,10.29
2023-05-14T08:17:38.063Z,10.32
2023-05-14T08:20:40.723Z,10.25
2023-05-14T08:23:43.889Z,10.24
2023-05-14T08:26:46.724Z,10.31
2023-05-14T08:29:49.706Z,10.29
2023-05-14T08:32:52.855Z,10.22
2023-05-14T08:35:56.321Z,10.24
2023-05-14T08:38:58.941Z,10.36
2023-05-14T08:42:06.392Z,10.36
2023-05-14T08:45:34.412Z,10.34
2023-05-14T08:48:40.669Z,10.41
2023-05-14T08:51:47.145Z,10.47
2023-05-14T08:54:53.738Z,10.50
2023-05-14T08:57:56.755Z,10.43
2023-05-14T09:00:59.850Z,10.39
2023-05-14T09:04:07.166Z,10.43
2023-05-14T09:07:11.419Z,10.43
2023-05-14T09:10:16.106Z,10.40
2023-05-14T09:13:19.045Z,10.49
2023-05-14T09:16:22.277Z,10.47
2023-05-14T09:19:26.122Z,10.48
2023-05-14T09:22:32.811Z,10.55
2023-05-14T09:25:35.861Z,10.44
2023-05-14T09:28:44.504Z,10.45
2023-05-14T09:31:51.192Z,10.50
2023-05-14T09:34:54.237Z,10.46
2023-05-14T09:37:57.155Z,10.49
2023-05-14T09:41:00.828Z,10.45
2023-05-14T09:44:05.430Z,10.49
2023-05-14T09:47:09.458Z,10.54
2023-05-14T09:50:12.659Z,10.53
2023-05-14T09:53:15.456Z,10.57
2023-05-14T09:56:18.730Z,10.53
2023-05-14T09:59:21.387Z,10.47
2023-05-14T10:02:36.885Z,10.48
2023-05-14T10:05:44.391Z,10.48
2023-05-14T10:08:49.359Z,10.54
2023-05-14T10:11:58.938Z,10.57
2023-05-14T10:15:06.883Z,10.62
2023-05-14T10:18:16.381Z,10.56
2023-05-14T10:21:21.894Z,10.52
2023-05-14T10:24:25.966Z,10.55
2023-05-14T10:27:28.830Z,10.45
2023-05-14T10:30:32.347Z,10.45
2023-05-14T10:33:48.220Z,10.58
2023-05-14T10:36:51.142Z,10.58
2023-05-14T10:39:58.534Z,10.55
2023-05-14T10:43:02.685Z,10.52
2023-05-14T10:46:06.616Z,10.49
2023-05-14T10:49:10.224Z,10.56
2023-05-14T10:52:12.992Z,10.56
2023-05-14T10:55:17.068Z,10.58
2023-05-14T10:58:19.706Z,10.51
2023-05-14T11:01:24.328Z,10.62
2023-05-14T11:04:28.431Z,10.60
2023-05-14T11:07:33.719Z,10.66
2023-05-14T11:10:37.122Z,10.63
2023-05-14T11:13:41.417Z,10.70
2023-05-14T11:16:44.441Z,10.68
2023-05-14T11:19:48.857Z,10.63
2023-05-14T11:22:53.120Z,10.69
2023-05-14T11:25:57.074Z,10.70
2023-05-14T11:29:00.161Z,10.78
2023-05-14T11:32:07.379Z,10.76
2023-05-14T11:35:10.223Z,10.72
2023-05-14T11:38:20.320Z,10.74
2023-05-14T11:41:23.337Z,10.79
2023-05-14T11:44:26.500Z,10.94
2023-05-14T11:47:30.315Z,11.37
2023-05-14T11:50:36.644Z,11.16
2023-05-14T11:53:39.325Z,10.91
2023-05-14T11:56:42.184Z,10.82
2023-05-14T11:59:45.479Z,10.70
2023-05-14T12:02:49.955Z,10.63
2023-05-14T12:06:00.776Z,10.60
2023-05-14T12:09:05.866Z,10.62
2023-05-14T12:12:12.659Z,10.65
2023-05-14T12:15:17.036Z,10.61
2023-05-14T12:18:24.506Z,10.65
2023-05-14T12:21:28.779Z,10.70
2023-05-14T12:24:31.761Z,10.77
2023-05-14T12:27:37.876Z,10.77
2023-05-14T12:30:41.346Z,10.82
2023-05-14T12:33:43.925Z,10.74
2023-05-14T12:36:46.877Z,10.95
2023-05-14T12:39:49.865Z,10.98
2023-05-14T12:42:53.634Z,11.01
2023-05-14T12:45:57.509Z,11.10
2023-05-14T12:49:00.674Z,10.95
2023-05-14T12:52:19.815Z,10.91
2023-05-14T12:55:26.679Z,10.90
2023-05-14T12:58:29.322Z,10.93
2023-05-14T13:01:32.247Z,10.96
2023-05-14T13:04:34.969Z,10.93
2023-05-14T13:07:38.449Z,10.97
2023-05-14T13:10:41.426Z,10.96
2023-05-14T13:13:44.377Z,10.98
2023-05-14T13:16:47.091Z,10.97
2023-05-14T13:19:50.085Z,10.95
2023-05-14T13:22:52.630Z,11.00
2023-05-14T13:25:55.727Z,11.00
2023-05-14T13:28:58.276Z,11.00
2023-05-14T13:32:01.294Z,10.92
2023-05-14T13:35:04.145Z,10.94
2023-05-14T13:38:07.786Z,11.01
2023-05-14T13:41:10.391Z,10.97
2023-05-14T13:44:13.348Z,11.04
2023-05-14T13:47:15.964Z,11.10
2023-05-14T13:50:19.017Z,11.08
2023-05-14T13:53:23.115Z,11.15
2023-05-14T13:56:26.221Z,11.23
2023-05-14T13:59:28.916Z,11.22
2023-05-14T14:02:32.904Z,11.21
2023-05-14T14:05:37.296Z,11.14
2023-05-14T14:08:40.027Z,11.15
2023-05-14T14:11:43.141Z,11.13
2023-05-14T14:14:46.022Z,11.27
2023-05-14T14:17:49.219Z,11.31
2023-05-14T14:20:51.833Z,11.15
2023-05-14T14:23:54.686Z,11.05
2023-05-14T14:26:57.324Z,11.03
2023-05-14T14:30:00.430Z,10.98
2023-05-14T14:33:03.228Z,10.98
2023-05-14T14:36:06.533Z,10.97
2023-05-14T14:39:09.125Z,10.98
2023-05-14T14:42:12.049Z,10.94
2023-05-14T14:45:14.751Z,11.03
2023-05-14T14:48:26.408Z,10.86
2023-05-14T14:51:30.342Z,10.82
2023-05-14T14:54:33.259Z,10.81
2023-05-14T14:57:36.063Z,10.77
2023-05-14T15:00:40.248Z,10.79
2023-05-14T15:03:43.013Z,10.75
2023-05-14T15:06:45.947Z,10.79
2023-05-14T15:09:48.669Z,10.77
2023-05-14T15:12:51.848Z,10.77
2023-05-14T15:15:54.571Z,10.79
2023-05-14T15:18:57.565Z,10.88
2023-05-14T15:22:00.335Z,10.92
2023-05-14T15:25:04.099Z,10.85
2023-05-14T15:28:07.593Z,10.83
2023-05-14T15:31:10.715Z,10.81
2023-05-14T15:34:13.400Z,10.83
2023-05-14T15:37:16.371Z,10.82
2023-05-14T15:40:19.240Z,10.84
2023-05-14T15:43:22.233Z,10.88
2023-05-14T15:46:25.750Z,10.87
2023-05-14T15:49:28.752Z,10.85
2023-05-14T15:52:31.732Z,10.80
2023-05-14T15:55:34.839Z,10.88
2023-05-14T15:58:37.497Z,10.90
2023-05-14T16:01:40.810Z,10.88
2023-05-14T16:04:45.382Z,10.89
2023-05-14T16:07:48.081Z,10.89
2023-05-14T16:10:51.017Z,10.90
2023-05-14T16:13:53.603Z,10.83
2023-05-14T16:16:56.554Z,10.86
2023-05-14T16:20:00.882Z,10.86
2023-05-14T16:23:03.981Z,10.88
2023-05-14T16:26:06.704Z,10.90
2023-05-14T16:29:09.667Z,10.89
2023-05-14T16:32:12.300Z,10.89
2023-05-14T16:35:16.861Z,10.90
2023-05-14T16:38:19.538Z,10.89
2023-05-14T16:41:22.499Z,10.91
2023-05-14T16:44:25.151Z,10.91
2023-05-14T16:47:28.406Z,10.91
2023-05-14T16:50:31.073Z,10.88
2023-05-14T16:53:33.980Z,10.86
2023-05-14T16:56:36.892Z,10.85
2023-05-14T16:59:39.856Z,10.96
2023-05-14T17:02:43.061Z,10.99
2023-05-14T17:05:46.275Z,11.00
2023-05-14T17:08:48.923Z,11.02
2023-05-14T17:11:51.843Z,11.02
2023-05-14T17:14:54.496Z,10.95
2023-05-14T17:17:58.156Z,11.01
2023-05-14T17:21:00.862Z,11.02
2023-05-14T17:24:03.944Z,11.03
2023-05-14T17:27:07.341Z,11.02
2023-05-14T17:30:10.722Z,11.04
2023-05-14T17:33:13.322Z,11.01
2023-05-14T17:36:16.257Z,11.01
2023-05-14T17:39:18.900Z,11.06
2023-05-14T17:42:21.848Z,11.09
2023-05-14T17:45:24.903Z,10.99
2023-05-14T17:48:28.185Z,11.05
2023-05-14T17:51:31.580Z,10.98
2023-05-14T17:54:34.568Z,10.98
2023-05-14T17:57:37.690Z,11.05
2023-05-14T18:00:40.940Z,11.00
2023-05-14T18:03:43.948Z,11.02
2023-05-14T18:06:46.655Z,11.00
2023-05-14T18:09:49.977Z,10.96
2023-05-14T18:12:52.949Z,11.02
2023-05-14T18:15:56.668Z,10.92
2023-05-14T18:19:02.882Z,10.92
2023-05-14T18:22:05.889Z,10.98
2023-05-14T18:25:09.686Z,10.98
2023-05-14T18:28:12.982Z,10.98
2023-05-14T18:31:16.038Z,10.97
2023-05-14T18:34:19.456Z,10.91
2023-05-14T18:37:23.004Z,10.97
2023-05-14T18:40:26.375Z,10.96
2023-05-14T18:43:29.442Z,10.97
2023-05-14T18:46:32.968Z,10.98
2023-05-14T18:49:38.686Z,10.90
2023-05-14T18:52:42.232Z,10.97
2023-05-14T18:55:45.353Z,10.96
2023-05-14T18:58:48.694Z,10.97
2023-05-14T19:01:52.846Z,10.97
2023-05-14T19:04:56.333Z,10.97
2023-05-14T19:07:59.552Z,10.90
2023-05-14T19:11:02.961Z,10.97
2023-05-14T19:14:06.395Z,11.00
2023-05-14T19:17:09.847Z,11.01
2023-05-14T19:20:13.036Z,11.01
2023-05-14T19:23:18.048Z,11.03
2023-05-14T19:26:21.776Z,11.05
2023-05-14T19:29:25.268Z,11.06
2023-05-14T19:32:28.281Z,11.06
2023-05-14T19:35:32.181Z,11.08
2023-05-14T19:38:35.710Z,11.06
2023-05-14T19:41:39.081Z,11.05
2023-05-14T19:44:42.374Z,11.09
2023-05-14T19:47:45.912Z,11.08
2023-05-14T19:50:48.902Z,11.05
2023-05-14T19:53:52.224Z,11.08
2023-05-14T19:56:55.950Z,11.10
2023-05-14T19:59:59.198Z,11.09
2023-05-14T20:03:02.343Z,11.08
2023-05-14T20:06:07.137Z,11.09
2023-05-14T20:09:10.201Z,11.10
2023-05-14T20:12:14.081Z,11.04
2023-05-14T20:15:17.311Z,11.10
2023-05-14T20:18:20.323Z,11.10
2023-05-14T20:21:23.120Z,11.11
2023-05-14T20:24:25.994Z,11.12
2023-05-14T20:27:28.931Z,11.12
2023-05-14T20:30:31.968Z,11.14
2023-05-14T20:33:35.423Z,11.15
2023-05-14T20:36:38.461Z,11.10
2023-05-14T20:39:41.494Z,11.16
2023-05-14T20:42:44.421Z,11.10
2023-05-14T20:45:47.123Z,11.18
2023-05-14T20:48:50.041Z,11.19
2023-05-14T20:51:52.931Z,11.15
2023-05-14T20:54:55.875Z,11.22
2023-05-14T20:57:58.602Z,11.22
2023-05-14T21:01:01.525Z,11.22
2023-05-14T21:04:04.560Z,11.21
2023-05-14T21:07:08.277Z,11.14
2023-05-14T21:10:11.226Z,11.21
2023-05-14T21:13:14.180Z,11.22
2023-05-14T21:16:16.832Z,11.23
2023-05-14T21:19:19.854Z,11.16
2023-05-14T21:22:22.729Z,11.21
2023-05-14T21:25:26.017Z,11.22
2023-05-14T21:28:28.899Z,11.22
2023-05-14T21:31:31.927Z,11.26
2023-05-14T21:34:34.578Z,11.26
2023-05-14T21:37:39.417Z,11.18
2023-05-14T21:40:42.026Z,11.20
2023-05-14T21:43:45.276Z,11.22
2023-05-14T21:46:47.912Z,11.31
2023-05-14T21:49:50.835Z,11.32
2023-05-14T21:52:53.559Z,11.27
2023-05-14T21:55:56.446Z,11.33
2023-05-14T21:58:59.109Z,11.23
2023-05-14T22:05:08.118Z,11.29
2023-05-14T22:08:11.122Z,11.21
2023-05-14T22:11:13.992Z,11.19
2023-05-14T22:14:16.542Z,11.25
2023-05-14T22:17:19.458Z,11.26
2023-05-14T22:20:22.470Z,11.26
2023-05-14T22:23:25.388Z,11.19
2023-05-14T22:26:27.904Z,11.24
2023-05-14T22:29:30.872Z,11.17
2023-05-14T22:32:33.558Z,11.22
2023-05-14T22:35:36.817Z,11.22
2023-05-14T22:38:41.230Z,11.21
2023-05-14T22:41:44.095Z,11.22
2023-05-14T22:44:46.830Z,11.23
2023-05-14T22:47:49.937Z,11.24
2023-05-14T22:50:53.404Z,11.23
2023-05-14T22:53:56.332Z,11.19
2023-05-14T22:56:58.937Z,11.28
2023-05-14T23:00:02.170Z,11.29
2023-05-14T23:03:04.789Z,11.24
2023-05-14T23:06:07.883Z,11.22
2023-05-14T23:09:10.621Z,11.28
2023-05-14T23:12:13.508Z,11.29
2023-05-14T23:15:16.251Z,11.29
2023-05-14T23:18:19.302Z,11.31
2023-05-14T23:21:21.998Z,11.27
2023-05-14T23:24:26.365Z,11.33
2023-05-14T23:27:29.072Z,11.32
2023-05-14T23:30:31.994Z,11.33
2023-05-14T23:33:34.568Z,11.34
2023-05-14T23:36:37.800Z,11.32
2023-05-14T23:39:40.411Z,11.33
2023-05-14T23:42:44.806Z,11.26
2023-05-14T23:45:47.532Z,11.31
2023-05-14T23:48:51.988Z,11.30
2023-05-14T23:51:55.057Z,11.29
2023-05-14T23:54:57.962Z,11.27
2023-05-14T23:58:00.511Z,11.20
